Time;durP1;ratioP1;P1;durP2;ratioP2;P2;SDS_P1;SDS_P2;PMS_P1;PMS_P2;Temp;Humidity;BMP_temperature;BMP_pressure;BME280_temperature;BME280_humidity;BME280_pressure;Samples;Min_cycle;Max_cycle;Signal;HPM_P1;HPM_P2
2023/03/07 00:01:05;;;;;;;10.77;2.63;;;5.20;99.90;;;;;;4997473;28;20735;-80
2023/03/07 00:03:32;;;;;;;14.17;2.30;;;5.10;99.90;;;;;;4993108;28;20231;-82
2023/03/07 00:06:04;;;;;;;12.43;2.23;;;5.20;99.90;;;;;;4993862;28;20294;-82
2023/03/07 00:08:33;;;;;;;13.37;2.67;;;5.20;99.90;;;;;;4994405;28;20220;-86
2023/03/07 00:11:02;;;;;;;10.23;2.33;;;5.30;99.90;;;;;;4994725;28;20203;-85
2023/03/07 00:13:31;;;;;;;8.10;2.20;;;5.30;99.90;;;;;;4995082;28;20203;-85
2023/03/07 00:16:02;;;;;;;7.60;1.50;;;5.30;99.90;;;;;;4994834;28;20231;-85
2023/03/07 00:18:29;;;;;;;9.67;2.90;;;5.40;99.90;;;;;;4995501;28;20199;-83
2023/03/07 00:21:00;;;;;;;7.10;2.57;;;5.40;99.90;;;;;;4995605;28;20211;-81
2023/03/07 00:23:27;;;;;;;12.23;2.10;;;5.40;99.90;;;;;;4997543;28;20681;-87
2023/03/07 00:26:00;;;;;;;8.60;1.93;;;5.40;99.90;;;;;;5014089;28;20203;-83
2023/03/07 00:28:27;;;;;;;9.70;2.50;;;5.40;99.90;;;;;;5014513;28;20315;-84
2023/03/07 00:30:54;;;;;;;9.20;1.67;;;5.40;99.90;;;;;;5014426;28;20206;-85
2023/03/07 00:33:21;;;;;;;5.77;1.10;;;5.40;99.90;;;;;;5014230;28;20263;-84
2023/03/07 00:35:55;;;;;;;6.73;1.57;;;5.40;99.90;;;;;;5014142;28;20552;-85
2023/03/07 00:38:23;;;;;;;10.20;2.10;;;5.40;99.90;;;;;;5013731;28;20206;-81
2023/03/07 00:40:58;;;;;;;10.77;2.70;;;5.40;99.90;;;;;;5014203;28;20686;-85
2023/03/07 00:43:26;;;;;;;8.67;1.60;;;5.40;99.90;;;;;;5013946;28;20297;-79
2023/03/07 00:45:53;;;;;;;11.17;2.10;;;5.40;99.90;;;;;;5008137;28;20230;-87
2023/03/07 00:48:20;;;;;;;7.80;2.30;;;5.50;99.90;;;;;;5011200;28;20251;-85
2023/03/07 00:50:49;;;;;;;7.63;1.80;;;5.50;99.90;;;;;;5013835;28;20199;-85
2023/03/07 00:53:16;;;;;;;11.87;2.47;;;5.50;99.90;;;;;;5012833;28;20199;-80
2023/03/07 00:55:57;;;;;;;11.53;1.83;;;5.50;99.90;;;;;;5013169;28;20278;-84
2023/03/07 00:58:26;;;;;;;10.00;1.90;;;5.50;99.90;;;;;;4994592;28;20284;-78
2023/03/07 01:00:54;;;;;;;9.83;1.50;;;5.50;99.90;;;;;;5003341;28;20234;-83
2023/03/07 01:03:21;;;;;;;8.60;1.40;;;5.50;99.90;;;;;;5017193;28;20200;-83
2023/03/07 01:05:48;;;;;;;8.47;1.93;;;5.50;99.90;;;;;;5009709;28;20232;-87
2023/03/07 01:08:16;;;;;;;12.77;1.77;;;5.50;99.90;;;;;;4997475;28;20525;-85
2023/03/07 01:10:43;;;;;;;6.37;1.33;;;5.50;99.90;;;;;;4996600;28;20473;-87
2023/03/07 01:13:11;;;;;;;16.43;2.13;;;5.50;99.90;;;;;;4995668;28;20291;-85
2023/03/07 01:15:39;;;;;;;8.70;1.57;;;5.50;99.90;;;;;;4996111;28;20318;-86
2023/03/07 01:18:07;;;;;;;10.20;1.93;;;5.50;99.90;;;;;;4996830;28;20497;-87
2023/03/07 01:20:35;;;;;;;4.53;1.00;;;5.50;99.90;;;;;;4997672;28;20283;-88
2023/03/07 01:23:03;;;;;;;7.33;1.87;;;5.50;99.90;;;;;;4997836;28;20299;-84
2023/03/07 01:25:30;;;;;;;11.33;2.43;;;5.50;99.90;;;;;;4996780;28;20224;-85
2023/03/07 01:27:57;;;;;;;6.57;1.70;;;5.60;99.90;;;;;;4996742;28;20255;-88
2023/03/07 01:30:25;;;;;;;8.83;2.20;;;5.50;99.90;;;;;;4997064;28;20668;-87
2023/03/07 01:32:56;;;;;;;9.17;2.13;;;5.50;99.90;;;;;;4997460;28;20740;-80
2023/03/07 01:35:23;;;;;;;7.00;1.37;;;5.60;99.90;;;;;;4997531;28;20243;-86
2023/03/07 01:37:51;;;;;;;6.97;1.50;;;5.50;99.90;;;;;;4997100;28;20234;-82
2023/03/07 01:40:19;;;;;;;8.53;1.57;;;5.60;99.90;;;;;;4996429;28;20204;-85
2023/03/07 01:42:46;;;;;;;7.17;1.50;;;5.60;99.90;;;;;;4997233;28;20384;-85
2023/03/07 01:45:50;;;;;;;10.83;1.57;;;5.60;99.90;;;;;;4996941;28;20279;-80
2023/03/07 01:48:19;;;;;;;11.87;2.87;;;5.60;99.90;;;;;;4997073;28;20286;-87
2023/03/07 01:50:46;;;;;;;12.37;2.60;;;5.60;99.90;;;;;;4997559;28;20207;-80
2023/03/07 01:53:14;;;;;;;10.27;1.67;;;5.70;99.90;;;;;;4996728;28;20235;-84
2023/03/07 01:55:41;;;;;;;9.47;1.83;;;5.70;99.90;;;;;;4996929;28;20208;-82
2023/03/07 01:58:12;;;;;;;6.40;1.93;;;5.60;99.90;;;;;;4996987;28;20283;-85
2023/03/07 02:00:40;;;;;;;10.20;1.57;;;5.60;99.90;;;;;;4997076;28;20208;-86
2023/03/07 02:03:12;;;;;;;8.93;1.87;;;5.60;99.90;;;;;;4996406;28;20196;-86
2023/03/07 02:05:45;;;;;;;8.97;1.30;;;5.60;99.90;;;;;;4996651;28;20238;-84
2023/03/07 02:08:14;;;;;;;6.83;1.33;;;5.70;99.90;;;;;;4996255;28;20248;-85
2023/03/07 02:10:43;;;;;;;5.00;1.53;;;5.60;99.90;;;;;;4995454;28;20231;-83
2023/03/07 02:13:10;;;;;;;7.70;1.90;;;5.60;99.90;;;;;;4996037;28;20239;-81
2023/03/07 02:15:38;;;;;;;6.83;1.40;;;5.60;99.90;;;;;;4995355;28;20282;-80
2023/03/07 02:18:06;;;;;;;4.53;1.77;;;5.60;99.90;;;;;;4996153;28;20425;-81
2023/03/07 02:20:42;;;;;;;4.60;1.70;;;5.50;99.90;;;;;;4994831;28;20220;-84
2023/03/07 02:23:14;;;;;;;9.03;1.90;;;5.40;99.90;;;;;;4994802;28;20695;-88
2023/03/07 02:25:48;;;;;;;7.87;1.13;;;5.40;99.90;;;;;;4994712;28;20610;-85
2023/03/07 02:28:18;;;;;;;5.00;1.63;;;5.30;99.90;;;;;;4995740;28;20234;-85
2023/03/07 02:30:56;;;;;;;4.67;1.03;;;5.30;99.90;;;;;;4996322;28;20631;-88
2023/03/07 02:33:23;;;;;;;3.70;0.93;;;5.20;99.90;;;;;;5014139;28;20491;-84
2023/03/07 02:35:54;;;;;;;3.53;1.30;;;5.20;99.90;;;;;;5015655;28;20199;-88
2023/03/07 02:38:22;;;;;;;2.80;0.90;;;5.20;99.90;;;;;;5015079;28;20820;-86
2023/03/07 02:40:50;;;;;;;7.20;1.10;;;5.20;99.90;;;;;;4995854;28;20227;-85
2023/03/07 02:43:19;;;;;;;3.30;0.77;;;5.20;99.90;;;;;;4995404;28;20206;-86
2023/03/07 02:45:46;;;;;;;5.13;1.60;;;5.20;99.90;;;;;;4999529;28;20203;-85
2023/03/07 02:48:13;;;;;;;5.70;0.97;;;5.20;99.90;;;;;;5014279;28;20682;-86
2023/03/07 02:50:40;;;;;;;1.63;0.70;;;5.30;99.90;;;;;;5005204;28;20327;-84
2023/03/07 02:53:07;;;;;;;6.27;1.33;;;5.30;99.90;;;;;;4994706;28;20748;-81
2023/03/07 02:55:34;;;;;;;4.67;1.23;;;5.30;99.90;;;;;;4995766;28;20287;-85
2023/03/07 02:58:01;;;;;;;8.60;1.10;;;5.30;99.90;;;;;;4995947;28;20284;-87
2023/03/07 03:00:29;;;;;;;5.80;1.87;;;5.40;99.90;;;;;;4995859;28;20196;-85
2023/03/07 03:02:56;;;;;;;5.97;1.47;;;5.40;99.90;;;;;;4997990;28;20291;-83
2023/03/07 03:05:23;;;;;;;3.67;1.10;;;5.50;99.90;;;;;;5015472;28;20254;-86
2023/03/07 03:07:50;;;;;;;7.73;1.20;;;5.50;99.90;;;;;;5015792;28;20211;-87
2023/03/07 03:10:18;;;;;;;7.70;1.07;;;5.50;99.90;;;;;;5015836;28;20200;-87
2023/03/07 03:12:45;;;;;;;8.73;1.67;;;5.50;99.90;;;;;;4999046;28;20235;-86
2023/03/07 03:15:12;;;;;;;7.87;1.57;;;5.60;99.90;;;;;;4995655;28;20259;-87
2023/03/07 03:17:41;;;;;;;10.17;1.50;;;5.60;99.90;;;;;;5000003;28;20205;-87
2023/03/07 03:20:10;;;;;;;14.40;1.97;;;5.60;99.90;;;;;;5015368;28;20790;-88
2023/03/07 03:22:37;;;;;;;5.87;1.43;;;5.60;99.90;;;;;;5015212;28;20766;-87
2023/03/07 03:25:06;;;;;;;5.43;1.60;;;5.50;99.90;;;;;;5009882;28;20287;-84
2023/03/07 03:27:33;;;;;;;10.07;1.53;;;5.40;99.90;;;;;;4995453;28;20226;-86
2023/03/07 03:29:59;;;;;;;9.40;1.57;;;5.30;99.90;;;;;;4995651;28;20228;-85
2023/03/07 03:32:26;;;;;;;7.27;1.33;;;5.20;99.90;;;;;;4995798;28;20304;-85
2023/03/07 03:34:55;;;;;;;6.13;1.20;;;5.10;99.90;;;;;;4995090;28;20679;-87
2023/03/07 03:37:22;;;;;;;6.33;1.07;;;5.10;99.90;;;;;;5000306;28;20207;-86
2023/03/07 03:39:49;;;;;;;3.47;0.87;;;5.10;99.90;;;;;;5014841;28;20282;-85
2023/03/07 03:42:16;;;;;;;4.70;1.00;;;5.00;99.90;;;;;;5015237;28;20227;-85
2023/03/07 03:44:43;;;;;;;4.60;1.13;;;5.00;99.90;;;;;;5014508;28;20534;-88
2023/03/07 03:47:10;;;;;;;3.77;1.03;;;4.90;99.90;;;;;;5014367;28;20242;-86
2023/03/07 03:49:36;;;;;;;8.07;1.00;;;4.90;99.90;;;;;;5013806;28;20231;-87
2023/03/07 03:52:05;;;;;;;3.40;1.10;;;5.00;99.90;;;;;;4995010;28;20230;-84
2023/03/07 03:54:32;;;;;;;6.03;1.43;;;5.00;99.90;;;;;;4995105;28;20617;-88
2023/03/07 03:56:59;;;;;;;5.47;1.47;;;5.00;99.90;;;;;;4995377;28;20793;-86
2023/03/07 03:59:26;;;;;;;7.33;1.83;;;5.00;99.90;;;;;;4995455;28;20214;-88
2023/03/07 04:01:54;;;;;;;9.40;2.07;;;5.00;99.90;;;;;;4995145;28;20203;-88
2023/03/07 04:04:21;;;;;;;6.03;1.60;;;5.10;99.90;;;;;;4995810;28;20192;-87
2023/03/07 04:06:48;;;;;;;5.07;1.50;;;5.10;99.90;;;;;;4995431;28;20196;-86
2023/03/07 04:09:16;;;;;;;11.23;2.53;;;5.10;99.90;;;;;;4994717;28;20222;-87
2023/03/07 04:11:43;;;;;;;7.80;2.00;;;5.10;99.90;;;;;;5000272;28;20302;-87
2023/03/07 04:14:10;;;;;;;10.97;2.40;;;5.10;99.90;;;;;;5014922;28;20548;-87
2023/03/07 04:16:37;;;;;;;7.10;2.13;;;5.10;99.90;;;;;;5014148;28;20289;-88
2023/03/07 04:19:04;;;;;;;10.57;1.70;;;5.20;99.90;;;;;;5014740;28;20796;-85
2023/03/07 04:21:30;;;;;;;6.13;1.70;;;5.10;99.90;;;;;;5014312;28;20205;-87
2023/03/07 04:23:57;;;;;;;7.57;1.50;;;5.20;99.90;;;;;;5003395;28;20227;-87
2023/03/07 04:26:26;;;;;;;9.87;1.60;;;5.20;99.90;;;;;;4992818;28;20306;-80
2023/03/07 04:28:53;;;;;;;3.03;1.10;;;5.20;99.90;;;;;;4992440;28;20277;-79
2023/03/07 04:31:22;;;;;;;4.80;1.33;;;5.20;99.90;;;;;;4993026;28;20235;-84
2023/03/07 04:33:50;;;;;;;2.83;1.60;;;5.10;99.90;;;;;;4995548;28;20228;-81
2023/03/07 04:36:17;;;;;;;4.90;1.33;;;5.20;99.90;;;;;;4996501;28;20210;-80
2023/03/07 04:38:44;;;;;;;7.03;1.23;;;5.10;99.90;;;;;;4997060;28;20283;-78
2023/03/07 04:41:13;;;;;;;6.47;0.90;;;4.80;99.90;;;;;;4997082;28;20626;-78
2023/03/07 04:43:42;;;;;;;5.43;0.87;;;4.60;99.90;;;;;;4996691;28;20219;-81
2023/03/07 04:46:10;;;;;;;4.53;0.90;;;4.50;99.90;;;;;;4996494;28;20528;-78
2023/03/07 04:48:37;;;;;;;3.80;1.70;;;4.40;99.90;;;;;;4996760;28;20216;-82
2023/03/07 04:51:04;;;;;;;6.83;1.33;;;4.30;99.90;;;;;;4996483;28;20286;-81
2023/03/07 04:53:32;;;;;;;2.17;0.60;;;4.10;99.90;;;;;;4996563;28;20869;-80
2023/03/07 04:55:59;;;;;;;5.03;1.10;;;4.10;99.90;;;;;;4996569;28;20204;-78
2023/03/07 04:58:26;;;;;;;4.10;0.90;;;4.00;99.90;;;;;;4995851;28;20243;-79
2023/03/07 05:00:56;;;;;;;8.03;1.47;;;4.00;99.90;;;;;;5009066;28;20208;-82
2023/03/07 05:03:25;;;;;;;8.13;1.40;;;3.90;99.90;;;;;;4996836;28;20208;-86
2023/03/07 05:05:52;;;;;;;5.47;2.13;;;3.90;99.90;;;;;;4995898;28;20196;-87
2023/03/07 05:08:19;;;;;;;8.63;1.23;;;3.90;99.90;;;;;;4996209;28;20188;-81
2023/03/07 05:10:46;;;;;;;2.63;0.80;;;3.90;99.90;;;;;;4996034;28;20322;-79
2023/03/07 05:13:13;;;;;;;4.10;0.90;;;3.90;99.90;;;;;;4996828;28;20600;-85
2023/03/07 05:15:40;;;;;;;5.77;0.97;;;4.00;99.90;;;;;;4998281;28;20243;-87
2023/03/07 05:18:08;;;;;;;3.57;1.00;;;4.00;99.90;;;;;;4998557;28;20247;-88
2023/03/07 05:20:35;;;;;;;3.80;0.73;;;4.00;99.90;;;;;;4997495;28;20288;-82
2023/03/07 05:23:02;;;;;;;5.50;1.00;;;4.00;99.90;;;;;;5012308;28;20211;-84
2023/03/07 05:25:29;;;;;;;4.00;0.90;;;4.10;99.90;;;;;;5017239;28;20199;-84
2023/03/07 05:27:57;;;;;;;7.83;1.90;;;4.20;99.90;;;;;;5003088;28;20282;-84
2023/03/07 05:30:24;;;;;;;5.20;0.90;;;4.20;99.90;;;;;;4997454;28;20303;-84
2023/03/07 05:32:51;;;;;;;5.70;1.20;;;4.30;99.90;;;;;;4997139;28;20800;-85
2023/03/07 05:35:22;;;;;;;12.80;2.63;;;4.20;99.90;;;;;;4997971;28;20204;-85
2023/03/07 05:37:49;;;;;;;3.83;1.07;;;4.20;99.90;;;;;;5012101;28;20245;-85
2023/03/07 05:40:17;;;;;;;6.00;1.93;;;4.30;99.90;;;;;;5017437;28;20282;-83
2023/03/07 05:42:45;;;;;;;3.27;0.90;;;4.20;99.90;;;;;;5017216;28;20538;-85
2023/03/07 05:45:12;;;;;;;6.07;1.40;;;4.20;99.90;;;;;;5005218;28;20200;-84
2023/03/07 05:47:39;;;;;;;4.70;0.90;;;4.20;99.90;;;;;;4997223;28;20204;-83
2023/03/07 05:50:08;;;;;;;3.77;1.63;;;4.30;99.90;;;;;;4997221;28;20304;-85
2023/03/07 05:52:36;;;;;;;5.83;0.90;;;4.30;99.90;;;;;;4997442;28;20211;-86
2023/03/07 05:55:03;;;;;;;3.20;1.07;;;4.20;99.90;;;;;;4995744;28;20196;-85
2023/03/07 05:57:30;;;;;;;4.57;1.20;;;4.30;99.90;;;;;;4995106;28;20203;-80
2023/03/07 05:59:57;;;;;;;3.70;1.20;;;4.30;99.90;;;;;;4995536;28;20508;-78
2023/03/07 06:02:24;;;;;;;7.57;1.57;;;4.20;99.90;;;;;;4994785;28;20286;-78
2023/03/07 06:04:50;;;;;;;4.23;1.50;;;4.20;99.90;;;;;;4995240;28;20210;-78
2023/03/07 06:07:17;;;;;;;3.80;0.93;;;4.20;99.90;;;;;;4995643;28;20314;-84
2023/03/07 06:09:45;;;;;;;4.50;0.80;;;4.10;99.90;;;;;;5002687;28;20631;-83
2023/03/07 06:12:12;;;;;;;6.77;1.07;;;4.10;99.90;;;;;;5016849;28;20207;-82
2023/03/07 06:14:39;;;;;;;4.13;0.93;;;4.00;99.90;;;;;;5015816;28;20219;-84
2023/03/07 06:17:06;;;;;;;5.63;1.00;;;3.90;99.90;;;;;;5015725;28;20207;-84
2023/03/07 06:19:33;;;;;;;4.90;0.90;;;3.90;99.90;;;;;;5016612;28;20217;-84
2023/03/07 06:22:00;;;;;;;5.73;1.20;;;3.90;99.90;;;;;;5015639;28;20214;-84
2023/03/07 06:24:27;;;;;;;7.70;1.37;;;3.90;99.90;;;;;;5015245;28;20238;-82
2023/03/07 06:26:56;;;;;;;5.67;1.20;;;3.90;99.90;;;;;;5015339;28;20211;-80
2023/03/07 06:29:23;;;;;;;4.00;1.03;;;3.90;99.90;;;;;;4999851;28;20231;-81
2023/03/07 06:31:50;;;;;;;8.63;1.50;;;4.00;99.90;;;;;;4995217;28;20720;-84
2023/03/07 06:34:17;;;;;;;5.07;1.00;;;4.00;99.90;;;;;;5007509;28;20215;-84
2023/03/07 06:36:44;;;;;;;11.13;1.23;;;4.00;99.90;;;;;;5012932;28;20237;-81
2023/03/07 06:39:11;;;;;;;5.87;1.27;;;3.90;99.90;;;;;;4994832;28;20509;-83
2023/03/07 06:41:38;;;;;;;6.03;0.90;;;4.00;99.90;;;;;;4995284;28;20234;-79
2023/03/07 06:44:06;;;;;;;2.80;1.10;;;4.00;99.90;;;;;;4994766;28;20204;-80
2023/03/07 06:46:33;;;;;;;5.60;1.30;;;4.00;99.90;;;;;;4994878;28;20692;-81
2023/03/07 06:49:00;;;;;;;6.33;1.80;;;4.00;99.90;;;;;;4995174;28;20287;-79
2023/03/07 06:51:27;;;;;;;5.43;0.90;;;4.00;99.90;;;;;;4994816;28;20218;-82
2023/03/07 06:53:53;;;;;;;8.77;1.80;;;4.10;99.90;;;;;;4995200;28;20593;-83
2023/03/07 06:56:20;;;;;;;4.00;1.77;;;4.10;99.90;;;;;;4994757;28;20200;-81
2023/03/07 06:58:47;;;;;;;4.83;1.10;;;4.10;99.90;;;;;;4994317;28;20294;-81
2023/03/07 07:01:20;;;;;;;4.97;1.27;;;4.10;99.90;;;;;;4994085;28;20206;-81
2023/03/07 07:03:47;;;;;;;8.17;1.23;;;4.20;99.90;;;;;;4993342;28;20849;-78
2023/03/07 07:06:14;;;;;;;8.03;1.80;;;4.20;99.90;;;;;;4994357;28;20231;-80
2023/03/07 07:08:41;;;;;;;6.00;1.10;;;4.30;99.90;;;;;;4993900;28;20203;-78
2023/03/07 07:11:08;;;;;;;7.33;1.73;;;4.30;99.90;;;;;;4993212;28;20223;-80
2023/03/07 07:13:34;;;;;;;8.03;1.23;;;4.30;99.90;;;;;;4993971;28;20287;-80
2023/03/07 07:16:05;;;;;;;8.40;1.80;;;4.40;99.90;;;;;;4994381;28;20236;-77
2023/03/07 07:18:34;;;;;;;6.27;1.60;;;4.30;99.90;;;;;;4993415;28;20204;-80
2023/03/07 07:21:01;;;;;;;2.83;1.20;;;4.30;99.90;;;;;;4994259;28;20211;-81
2023/03/07 07:23:28;;;;;;;8.50;2.30;;;4.30;99.90;;;;;;4993860;28;20250;-79
2023/03/07 07:28:37;;;;;;;8.83;2.80;;;4.30;99.90;;;;;;5094814;22;20320;-79
2023/03/07 07:31:04;;;;;;;10.13;2.33;;;4.30;99.90;;;;;;5030637;28;20313;-79
2023/03/07 07:33:33;;;;;;;5.40;1.20;;;4.40;99.90;;;;;;5031923;28;20519;-79
2023/03/07 07:36:00;;;;;;;8.80;1.90;;;4.40;99.90;;;;;;5032343;28;20202;-81
2023/03/07 07:38:27;;;;;;;5.73;1.83;;;4.40;99.90;;;;;;5032113;28;20301;-80
2023/03/07 07:40:55;;;;;;;4.60;1.67;;;4.40;99.90;;;;;;5023230;28;20663;-80
2023/03/07 07:43:22;;;;;;;5.40;1.10;;;4.40;99.90;;;;;;5031438;28;20230;-80
2023/03/07 07:45:48;;;;;;;6.27;1.30;;;4.50;99.90;;;;;;5031639;28;20202;-79
2023/03/07 07:48:16;;;;;;;4.33;1.00;;;4.40;99.90;;;;;;5030420;28;20201;-78
2023/03/07 07:50:45;;;;;;;2.80;1.30;;;4.40;99.90;;;;;;5012489;28;20225;-81
2023/03/07 07:53:12;;;;;;;9.13;0.90;;;4.40;99.90;;;;;;5012909;28;20235;-82
2023/03/07 07:55:39;;;;;;;4.70;1.40;;;4.50;99.90;;;;;;5012905;28;20290;-81
2023/03/07 07:58:06;;;;;;;4.30;1.87;;;4.40;99.90;;;;;;5012771;28;20230;-87
2023/03/07 08:00:33;;;;;;;4.83;1.17;;;4.40;99.90;;;;;;5019705;28;20233;-84
2023/03/07 08:03:00;;;;;;;3.13;1.23;;;4.50;99.90;;;;;;5013928;28;20242;-89
2023/03/07 08:05:27;;;;;;;4.80;1.03;;;4.50;99.90;;;;;;5014693;28;20278;-87
2023/03/07 08:07:56;;;;;;;8.00;1.70;;;4.50;99.90;;;;;;5013709;28;20319;-89
2023/03/07 08:10:23;;;;;;;7.13;2.00;;;4.50;99.90;;;;;;5015067;28;20649;-88
2023/03/07 08:12:51;;;;;;;5.10;1.70;;;4.50;99.90;;;;;;5032709;28;20257;-87
2023/03/07 08:15:20;;;;;;;7.33;1.90;;;4.40;99.90;;;;;;5033869;28;20202;-86
2023/03/07 08:17:47;;;;;;;8.17;1.63;;;4.40;99.90;;;;;;5028344;28;20213;-88
2023/03/07 08:20:14;;;;;;;6.43;1.47;;;4.40;99.90;;;;;;5014700;28;20717;-86
2023/03/07 08:22:42;;;;;;;9.70;1.70;;;4.30;99.90;;;;;;5029971;28;20207;-85
2023/03/07 08:25:20;;;;;;;5.83;1.57;;;4.30;99.90;;;;;;5034336;28;20198;-85
2023/03/07 08:27:47;;;;;;;7.70;2.10;;;4.30;99.90;;;;;;5063944;28;20241;-80
2023/03/07 08:30:15;;;;;;;5.07;1.30;;;4.30;99.90;;;;;;5074194;28;20236;-87
2023/03/07 08:32:42;;;;;;;3.90;1.50;;;4.30;99.90;;;;;;5057351;28;20289;-86
2023/03/07 08:35:09;;;;;;;2.60;0.90;;;4.30;99.90;;;;;;5053484;28;20197;-87
2023/03/07 08:37:36;;;;;;;6.47;1.20;;;4.30;99.90;;;;;;5054196;28;20210;-86
2023/03/07 08:40:03;;;;;;;4.70;1.10;;;4.30;99.90;;;;;;5058595;28;20207;-88
2023/03/07 08:42:31;;;;;;;4.47;1.20;;;4.40;99.90;;;;;;5074080;28;20582;-88
2023/03/07 08:44:58;;;;;;;2.83;1.00;;;4.40;99.90;;;;;;5074145;28;20288;-82
2023/03/07 08:47:25;;;;;;;7.03;1.00;;;4.40;99.90;;;;;;5074460;28;20205;-87
2023/03/07 08:49:52;;;;;;;8.00;1.50;;;4.40;99.90;;;;;;5065061;28;20711;-85
2023/03/07 08:52:19;;;;;;;5.57;1.40;;;4.50;99.90;;;;;;5054192;28;20569;-85
2023/03/07 08:54:45;;;;;;;6.83;1.53;;;4.50;99.90;;;;;;5069152;28;20201;-84
2023/03/07 08:57:12;;;;;;;8.03;1.23;;;4.50;99.90;;;;;;5066272;28;20190;-85
2023/03/07 08:59:41;;;;;;;7.03;1.47;;;4.50;99.90;;;;;;5052443;28;20277;-85
2023/03/07 09:02:09;;;;;;;3.90;0.97;;;4.50;99.90;;;;;;5052017;28;20289;-78
2023/03/07 09:04:36;;;;;;;10.43;1.47;;;4.40;99.90;;;;;;5051423;28;20289;-77
2023/03/07 09:07:03;;;;;;;8.07;1.00;;;4.30;99.90;;;;;;5051656;28;20241;-80
2023/03/07 09:09:31;;;;;;;2.83;0.90;;;4.20;99.90;;;;;;5051321;28;20621;-78
2023/03/07 09:11:58;;;;;;;6.07;1.33;;;4.10;99.90;;;;;;5051483;28;20838;-78
2023/03/07 09:14:25;;;;;;;6.17;0.93;;;4.00;99.90;;;;;;5051510;28;20206;-80
2023/03/07 09:16:53;;;;;;;6.20;1.20;;;4.00;99.90;;;;;;5051160;28;20289;-76
2023/03/07 09:19:22;;;;;;;8.13;1.77;;;4.00;99.90;;;;;;5052678;28;20213;-76
2023/03/07 09:21:49;;;;;;;7.67;1.60;;;4.00;99.90;;;;;;5056290;28;20209;-82
2023/03/07 09:24:16;;;;;;;4.90;1.17;;;4.10;99.90;;;;;;5055910;28;20513;-79
2023/03/07 09:26:43;;;;;;;7.27;1.30;;;4.10;99.90;;;;;;5055040;28;20234;-79
2023/03/07 09:29:10;;;;;;;7.83;1.70;;;4.10;99.90;;;;;;5056581;28;20226;-84
2023/03/07 09:31:37;;;;;;;5.70;1.10;;;4.10;99.90;;;;;;5055444;28;20645;-80
2023/03/07 09:34:05;;;;;;;6.03;1.40;;;4.10;99.90;;;;;;5056287;28;20579;-82
2023/03/07 09:36:32;;;;;;;10.73;1.90;;;4.20;99.90;;;;;;5056407;28;20219;-86
2023/03/07 09:38:59;;;;;;;2.87;1.20;;;4.30;99.90;;;;;;5074221;28;20240;-83
2023/03/07 09:41:52;;;;;;;5.50;1.53;;;4.30;99.90;;;;;;5075062;28;20197;-83
2023/03/07 09:44:30;;;;;;;7.43;1.73;;;4.40;99.90;;;;;;5076762;28;20185;-86
2023/03/07 09:47:10;;;;;;;10.40;2.00;;;4.50;99.90;;;;;;5076421;28;20564;-81
2023/03/07 09:49:46;;;;;;;6.50;1.83;;;4.60;99.90;;;;;;5076357;28;20267;-81
2023/03/07 09:52:16;;;;;;;8.33;3.37;;;4.60;99.90;;;;;;5076281;28;20280;-83
2023/03/07 09:54:49;;;;;;;3.40;1.10;;;4.70;99.90;;;;;;5056099;28;20206;-83
2023/03/07 09:57:21;;;;;;;5.37;1.83;;;4.80;99.90;;;;;;5056379;28;20271;-86
2023/03/07 09:59:50;;;;;;;6.33;2.20;;;4.80;99.90;;;;;;5056144;28;20689;-87
2023/03/07 10:02:21;;;;;;;5.17;1.47;;;4.90;99.90;;;;;;5056084;28;20204;-80
2023/03/07 10:04:54;;;;;;;11.13;1.20;;;5.00;99.90;;;;;;5055858;28;20501;-81
2023/03/07 10:07:24;;;;;;;4.80;1.37;;;5.00;99.90;;;;;;5055640;28;20597;-82
2023/03/07 10:09:54;;;;;;;3.97;1.07;;;4.90;99.90;;;;;;5056415;28;20244;-82
2023/03/07 10:12:48;;;;;;;4.17;1.00;;;4.80;99.90;;;;;;5054745;28;20201;-85
2023/03/07 10:15:23;;;;;;;1.93;0.90;;;4.70;99.90;;;;;;5053686;28;20204;-82
2023/03/07 10:18:23;;;;;;;6.50;0.90;;;4.50;99.90;;;;;;5057676;28;20606;-81
2023/03/07 10:20:55;;;;;;;3.40;0.63;;;4.30;99.90;;;;;;5074660;28;20193;-80
2023/03/07 10:23:35;;;;;;;5.73;1.10;;;4.10;99.90;;;;;;5075482;28;20250;-82
2023/03/07 10:26:10;;;;;;;2.47;0.73;;;3.90;99.90;;;;;;5055929;28;20253;-82
2023/03/07 10:28:39;;;;;;;2.00;0.80;;;3.70;99.90;;;;;;5074268;28;20256;-81
2023/03/07 10:31:15;;;;;;;2.13;0.90;;;3.70;99.90;;;;;;5074696;28;20233;-82
2023/03/07 10:33:45;;;;;;;5.33;1.77;;;3.60;99.90;;;;;;5073817;28;20276;-82
2023/03/07 10:36:19;;;;;;;8.03;1.60;;;3.70;99.90;;;;;;5073175;28;20411;-78
2023/03/07 10:38:55;;;;;;;13.90;1.93;;;3.70;99.90;;;;;;5073831;28;20285;-76
2023/03/07 10:41:22;;;;;;;4.97;1.20;;;3.80;99.90;;;;;;5074141;28;20500;-77
2023/03/07 10:43:51;;;;;;;7.03;1.87;;;3.90;99.90;;;;;;5072971;28;20288;-79
2023/03/07 10:46:20;;;;;;;13.67;2.60;;;3.90;99.90;;;;;;5073799;28;20288;-77
2023/03/07 10:48:50;;;;;;;4.20;1.30;;;3.90;99.90;;;;;;5072861;28;20201;-77
2023/03/07 10:51:33;;;;;;;4.80;1.27;;;4.00;99.90;;;;;;5073785;28;20272;-79
2023/03/07 10:54:01;;;;;;;5.20;1.40;;;4.20;99.90;;;;;;5073480;28;20204;-78
2023/03/07 10:56:28;;;;;;;4.80;1.37;;;4.30;99.90;;;;;;5072905;28;20280;-79
2023/03/07 10:59:03;;;;;;;3.00;1.43;;;4.40;99.90;;;;;;5073665;28;20302;-78
2023/03/07 11:01:30;;;;;;;3.57;1.27;;;4.50;99.90;;;;;;5073924;28;20239;-79
2023/03/07 11:04:00;;;;;;;4.40;2.07;;;4.60;99.90;;;;;;5072749;28;20221;-78
2023/03/07 11:06:33;;;;;;;4.57;1.33;;;4.70;99.90;;;;;;5073332;28;20268;-78
2023/03/07 11:09:16;;;;;;;2.97;0.90;;;4.80;99.90;;;;;;5073429;28;20192;-80
2023/03/07 11:11:49;;;;;;;3.63;1.13;;;4.80;99.90;;;;;;5072446;28;20224;-79
2023/03/07 11:14:16;;;;;;;2.67;1.10;;;5.00;99.90;;;;;;5079532;28;20193;-77
2023/03/07 11:16:49;;;;;;;4.53;1.53;;;5.00;99.90;;;;;;5073653;28;20204;-78
2023/03/07 11:19:44;;;;;;;4.20;1.57;;;5.20;99.90;;;;;;5073346;28;20603;-80
2023/03/07 11:22:32;;;;;;;4.83;1.70;;;5.30;99.90;;;;;;5068975;28;20283;-81
2023/03/07 11:25:02;;;;;;;4.33;1.40;;;5.50;99.90;;;;;;5093742;28;20209;-84
2023/03/07 11:27:40;;;;;;;5.67;1.30;;;5.50;99.90;;;;;;5092499;28;20247;-84
2023/03/07 11:30:19;;;;;;;6.33;1.80;;;5.60;99.90;;;;;;5094726;28;20531;-86
2023/03/07 11:32:52;;;;;;;4.43;1.83;;;5.70;99.90;;;;;;5093549;28;20626;-79
2023/03/07 11:35:23;;;;;;;7.10;2.20;;;5.70;99.90;;;;;;5073886;28;20685;-84
2023/03/07 11:38:02;;;;;;;10.87;2.20;;;5.80;99.90;;;;;;5073704;28;20306;-79
2023/03/07 11:40:33;;;;;;;6.57;1.80;;;5.90;99.90;;;;;;5073818;28;20268;-85
2023/03/07 11:43:14;;;;;;;8.47;1.87;;;5.90;99.90;;;;;;5073811;28;20289;-81
2023/03/07 11:45:50;;;;;;;5.63;1.93;;;6.10;99.90;;;;;;5086499;28;20775;-81
2023/03/07 11:48:35;;;;;;;5.30;2.03;;;6.10;99.90;;;;;;5087871;28;20205;-85
2023/03/07 11:51:03;;;;;;;5.80;1.50;;;6.20;99.90;;;;;;5091531;28;20699;-82
2023/03/07 11:53:48;;;;;;;5.20;1.37;;;6.30;99.90;;;;;;5090780;28;20200;-82
2023/03/07 11:56:25;;;;;;;3.77;1.00;;;6.30;99.90;;;;;;5087990;28;20561;-80
2023/03/07 11:59:30;;;;;;;6.53;1.20;;;6.30;99.90;;;;;;5088889;28;20209;-86
2023/03/07 12:01:59;;;;;;;4.83;1.30;;;6.30;99.90;;;;;;5081583;28;20275;-82
2023/03/07 12:04:51;;;;;;;4.43;0.93;;;6.40;99.90;;;;;;5088506;28;20294;-84
2023/03/07 12:07:44;;;;;;;3.90;1.30;;;6.50;99.90;;;;;;5080910;28;20212;-79
2023/03/07 12:10:29;;;;;;;2.50;1.00;;;6.60;99.90;;;;;;5084440;28;20200;-83
2023/03/07 12:13:06;;;;;;;8.07;1.47;;;6.60;99.90;;;;;;5091240;28;20232;-79
2023/03/07 12:15:39;;;;;;;4.63;1.90;;;6.70;99.90;;;;;;5082517;28;20193;-91
2023/03/07 12:18:32;;;;;;;5.43;2.13;;;6.70;99.90;;;;;;5090850;28;20231;-89
2023/03/07 12:21:12;;;;;;;6.40;2.50;;;6.70;99.90;;;;;;5091797;28;20197;-85
2023/03/07 12:23:43;;;;;;;5.17;1.47;;;6.70;99.90;;;;;;5092834;28;20271;-89
2023/03/07 12:26:17;;;;;;;8.63;3.87;;;6.60;99.90;;;;;;5096376;28;20227;-88
2023/03/07 12:28:49;;;;;;;5.67;1.60;;;6.50;99.90;;;;;;5099125;28;20242;-91
2023/03/07 12:31:22;;;;;;;2.40;0.70;;;6.40;99.90;;;;;;5087930;28;20225;-80
2023/03/07 12:34:01;;;;;;;2.83;0.90;;;6.40;99.90;;;;;;5071812;28;20236;-88
2023/03/07 12:36:34;;;;;;;5.77;1.80;;;6.30;99.90;;;;;;5090515;28;20664;-91
2023/03/07 12:39:07;;;;;;;3.53;1.47;;;6.20;99.90;;;;;;5085787;28;20321;-90
2023/03/07 12:41:44;;;;;;;3.67;1.17;;;6.20;99.90;;;;;;5100790;28;20287;-84
2023/03/07 12:44:16;;;;;;;3.13;1.17;;;6.10;99.90;;;;;;5094029;28;20251;-88
2023/03/07 12:46:51;;;;;;;5.10;0.87;;;6.00;99.90;;;;;;5077195;28;20201;-88
2023/03/07 12:49:24;;;;;;;5.40;1.20;;;5.90;99.90;;;;;;5084643;28;20209;-89
2023/03/07 12:51:54;;;;;;;3.93;1.33;;;6.00;99.90;;;;;;5086766;28;20224;-89
2023/03/07 12:54:25;;;;;;;3.43;0.90;;;6.00;99.90;;;;;;5095564;28;20210;-88
2023/03/07 12:57:00;;;;;;;1.43;0.87;;;6.10;99.90;;;;;;5097452;28;20200;-90
2023/03/07 12:59:29;;;;;;;3.47;0.83;;;6.10;99.90;;;;;;5098712;28;20612;-89
2023/03/07 13:02:04;;;;;;;2.07;0.80;;;6.10;99.90;;;;;;5105098;28;20223;-89
2023/03/07 13:04:34;;;;;;;2.40;1.27;;;6.00;99.90;;;;;;5080241;28;20276;-87
2023/03/07 13:07:08;;;;;;;1.33;0.60;;;6.00;99.90;;;;;;5097114;28;20197;-84
2023/03/07 13:09:38;;;;;;;2.23;0.53;;;5.90;99.90;;;;;;5097406;28;20291;-88
2023/03/07 13:12:25;;;;;;;4.37;1.23;;;5.80;99.90;;;;;;5097608;28;20216;-88